createdAt,value
2022-10-06T00:00:36.595Z,100101.25
2022-10-06T00:01:38.949Z,100095.91
2022-10-06T00:02:41.283Z,100096.38
2022-10-06T00:03:45.037Z,100101.31
2022-10-06T00:04:47.383Z,100101.91
2022-10-06T00:05:50.885Z,100092.66
2022-10-06T00:06:53.075Z,100089.38
2022-10-06T00:07:55.443Z,100100.72
2022-10-06T00:08:57.720Z,100096.25
2022-10-06T00:09:59.938Z,100090.22
2022-10-06T00:11:02.559Z,100100.09
2022-10-06T00:12:05.648Z,100104.66
2022-10-06T00:13:08.218Z,100094.84
2022-10-06T00:14:10.384Z,100103.78
2022-10-06T00:15:16.181Z,100108.22
2022-10-06T00:16:23.446Z,100109.88
2022-10-06T00:17:25.735Z,100108.06
2022-10-06T00:18:29.910Z,100108.13
2022-10-06T00:19:32.520Z,100112.28
2022-10-06T00:20:34.685Z,100107.91
2022-10-06T00:21:37.273Z,100104.38
2022-10-06T00:22:42.388Z,100116.31
2022-10-06T00:23:44.677Z,100118.53
2022-10-06T00:24:46.847Z,100125.63
2022-10-06T00:25:49.212Z,100124.72
2022-10-06T00:26:51.382Z,100132.53
2022-10-06T00:27:54.741Z,100130.53
2022-10-06T00:28:56.968Z,100125.75
2022-10-06T00:29:59.133Z,100134.41
2022-10-06T00:31:02.907Z,100135.00
2022-10-06T00:32:05.200Z,100133.13
2022-10-06T00:33:07.378Z,100131.91
2022-10-06T00:34:10.214Z,100137.38
2022-10-06T00:35:12.391Z,100134.97
2022-10-06T00:36:14.578Z,100130.97
2022-10-06T00:37:16.781Z,100137.97
2022-10-06T00:38:18.946Z,100138.56
2022-10-06T00:39:21.753Z,100141.59
2022-10-06T00:40:24.427Z,100149.41
2022-10-06T00:41:26.695Z,100144.16
2022-10-06T00:42:31.254Z,100140.00
2022-10-06T00:43:43.959Z,100149.19
2022-10-06T00:44:49.443Z,100144.75
2022-10-06T00:45:51.830Z,100138.63
2022-10-06T00:46:54.275Z,100139.47
2022-10-06T00:48:02.301Z,100138.47
2022-10-06T00:49:27.129Z,100141.94
2022-10-06T00:50:30.244Z,100140.56
2022-10-06T00:51:36.231Z,100131.69
2022-10-06T00:52:40.074Z,100138.56
2022-10-06T00:53:43.067Z,100136.72
2022-10-06T00:54:45.414Z,100134.72
2022-10-06T00:55:47.910Z,100141.00
2022-10-06T00:56:50.198Z,100137.59
2022-10-06T00:57:53.633Z,100143.00
2022-10-06T00:58:55.835Z,100137.38
2022-10-06T00:59:58.014Z,100143.44
2022-10-06T01:01:00.307Z,100141.53
2022-10-06T01:02:12.803Z,100139.31
2022-10-06T01:03:21.363Z,100145.66
2022-10-06T01:04:24.440Z,100140.25
2022-10-06T01:05:33.162Z,100138.25
2022-10-06T01:06:53.956Z,100145.00
2022-10-06T01:07:56.858Z,100143.97
2022-10-06T01:08:59.052Z,100144.75
2022-10-06T01:10:01.405Z,100149.00
2022-10-06T01:11:05.860Z,100146.22
2022-10-06T01:12:09.413Z,100156.56
2022-10-06T01:13:13.244Z,100148.34
2022-10-06T01:14:16.569Z,100148.97
2022-10-06T01:15:20.967Z,100143.81
2022-10-06T01:16:26.907Z,100143.63
2022-10-06T01:17:35.978Z,100141.28
2022-10-06T01:18:41.137Z,100141.91
2022-10-06T01:19:51.105Z,100146.06
2022-10-06T01:21:05.153Z,100144.38
2022-10-06T01:22:08.374Z,100144.16
2022-10-06T01:23:11.404Z,100133.56
2022-10-06T01:24:13.735Z,100134.72
2022-10-06T01:25:17.662Z,100142.38
2022-10-06T01:26:23.174Z,100137.03
2022-10-06T01:27:29.756Z,100144.63
2022-10-06T01:28:32.943Z,100138.50
2022-10-06T01:29:36.913Z,100137.38
2022-10-06T01:30:52.757Z,100134.22
2022-10-06T01:31:56.459Z,100144.19
2022-10-06T01:32:59.094Z,100134.84
2022-10-06T01:34:01.955Z,100147.09
2022-10-06T01:35:05.800Z,100152.91
2022-10-06T01:36:08.066Z,100147.84
2022-10-06T01:37:10.386Z,100152.94
2022-10-06T01:38:12.579Z,100146.47
2022-10-06T01:39:15.349Z,100143.19
2022-10-06T01:40:17.608Z,100139.66
2022-10-06T01:41:21.661Z,100141.47
2022-10-06T01:42:25.137Z,100146.47
2022-10-06T01:43:28.240Z,100141.03
2022-10-06T01:44:30.447Z,100142.47
2022-10-06T01:45:32.669Z,100138.78
2022-10-06T01:46:34.852Z,100130.25
2022-10-06T01:47:37.941Z,100138.06
2022-10-06T01:48:40.125Z,100142.28
2022-10-06T01:49:43.585Z,100140.41
2022-10-06T01:50:46.730Z,100142.94
2022-10-06T01:51:50.201Z,100144.00
2022-10-06T01:52:52.781Z,100138.66
2022-10-06T01:53:54.962Z,100138.72
2022-10-06T01:54:57.955Z,100147.75
2022-10-06T01:56:00.404Z,100142.41
2022-10-06T01:57:06.177Z,100145.03
2022-10-06T01:58:09.881Z,100146.09
2022-10-06T01:59:12.134Z,100146.09
2022-10-06T02:00:14.475Z,100137.19
2022-10-06T02:01:17.907Z,100151.19
2022-10-06T02:02:20.140Z,100155.84
2022-10-06T02:03:22.279Z,100149.03
2022-10-06T02:04:24.529Z,100156.53
2022-10-06T02:05:26.868Z,100159.91
2022-10-06T02:06:30.359Z,100153.03
2022-10-06T02:07:35.441Z,100159.16
2022-10-06T02:08:38.239Z,100163.34
2022-10-06T02:09:41.410Z,100161.38
2022-10-06T02:10:44.145Z,100164.56
2022-10-06T02:11:54.096Z,100166.53
2022-10-06T02:12:57.071Z,100159.41
2022-10-06T02:14:00.555Z,100168.25
2022-10-06T02:15:03.465Z,100168.13
2022-10-06T02:16:08.138Z,100163.25
2022-10-06T02:17:10.546Z,100159.66
2022-10-06T02:18:12.737Z,100168.69
2022-10-06T02:19:14.978Z,100162.91
2022-10-06T02:20:17.212Z,100171.59
2022-10-06T02:21:21.564Z,100175.97
2022-10-06T02:22:23.791Z,100181.19
2022-10-06T02:23:26.412Z,100178.47
2022-10-06T02:24:28.582Z,100183.59
2022-10-06T02:25:30.843Z,100193.28
2022-10-06T02:26:33.792Z,100192.09
2022-10-06T02:27:35.980Z,100187.75
2022-10-06T02:28:38.787Z,100192.44
2022-10-06T02:29:42.773Z,100201.13
2022-10-06T02:30:45.710Z,100198.38
2022-10-06T02:31:49.502Z,100200.69
2022-10-06T02:32:52.689Z,100190.72
2022-10-06T02:33:55.981Z,100193.25
2022-10-06T02:35:00.135Z,100207.22
2022-10-06T02:36:03.491Z,100201.00
2022-10-06T02:37:05.701Z,100209.69
2022-10-06T02:38:08.003Z,100208.75
2022-10-06T02:39:10.874Z,100200.59
2022-10-06T02:40:13.064Z,100216.34
2022-10-06T02:41:15.247Z,100205.59
2022-10-06T02:42:18.094Z,100209.88
2022-10-06T02:43:21.373Z,100208.94
2022-10-06T02:44:25.008Z,100213.28
2022-10-06T02:45:30.999Z,100214.81
2022-10-06T02:46:33.216Z,100222.09
2022-10-06T02:47:37.882Z,100220.38
2022-10-06T02:48:40.933Z,100224.47
2022-10-06T02:49:43.395Z,100228.22
2022-10-06T02:50:46.180Z,100228.97
2022-10-06T02:51:48.332Z,100229.69
2022-10-06T02:52:51.510Z,100233.88
2022-10-06T02:53:54.308Z,100233.16
2022-10-06T02:54:56.737Z,100239.06
2022-10-06T02:56:03.212Z,100242.31
2022-10-06T02:57:05.378Z,100250.88
2022-10-06T02:58:07.559Z,100240.88
2022-10-06T02:59:09.876Z,100254.91
2022-10-06T03:00:15.054Z,100241.81
2022-10-06T03:01:18.705Z,100248.63
2022-10-06T03:02:21.140Z,100247.78
2022-10-06T03:03:23.515Z,100244.53
2022-10-06T03:04:25.689Z,100251.81
2022-10-06T03:05:27.960Z,100252.81
2022-10-06T03:06:31.368Z,100255.78
2022-10-06T03:07:41.886Z,100258.31
2022-10-06T03:08:44.060Z,100261.44
2022-10-06T03:09:46.320Z,100261.16
2022-10-06T03:10:48.598Z,100266.16
2022-10-06T03:11:51.155Z,100266.31
2022-10-06T03:13:01.633Z,100263.53
2022-10-06T03:14:05.426Z,100266.94
2022-10-06T03:15:08.428Z,100268.19
2022-10-06T03:16:16.348Z,100275.94
2022-10-06T03:17:18.597Z,100273.59
2022-10-06T03:18:26.571Z,100269.81
2022-10-06T03:19:29.091Z,100280.97
2022-10-06T03:20:31.289Z,100285.38
2022-10-06T03:21:35.897Z,100278.19
2022-10-06T03:22:38.143Z,100286.88
2022-10-06T03:23:43.916Z,100296.72
2022-10-06T03:24:46.823Z,100288.84
2022-10-06T03:25:56.837Z,100295.13
2022-10-06T03:26:59.309Z,100291.47
2022-10-06T03:28:01.562Z,100294.00
2022-10-06T03:29:09.138Z,100299.50
2022-10-06T03:30:16.155Z,100303.16
2022-10-06T03:31:18.417Z,100293.56
2022-10-06T03:32:22.746Z,100302.28
2022-10-06T03:33:25.257Z,100299.63
2022-10-06T03:34:27.806Z,100294.53
2022-10-06T03:35:31.650Z,100303.84
2022-10-06T03:36:35.738Z,100303.91
2022-10-06T03:37:37.892Z,100304.06
2022-10-06T03:38:40.319Z,100314.56
2022-10-06T03:39:42.579Z,100306.69
2022-10-06T03:40:46.228Z,100316.25
2022-10-06T03:41:48.536Z,100311.53
2022-10-06T03:42:50.674Z,100322.13
2022-10-06T03:43:54.492Z,100312.53
2022-10-06T03:44:56.647Z,100317.28
2022-10-06T03:46:01.308Z,100321.44
2022-10-06T03:47:05.017Z,100311.03
2022-10-06T03:48:07.988Z,100325.84
2022-10-06T03:49:10.142Z,100326.66
2022-10-06T03:50:12.569Z,100327.41
2022-10-06T03:51:21.481Z,100330.38
2022-10-06T03:52:26.178Z,100335.84
2022-10-06T03:53:29.937Z,100336.69
2022-10-06T03:54:32.231Z,100334.22
2022-10-06T03:55:34.410Z,100345.06
2022-10-06T03:56:39.258Z,100340.41
2022-10-06T03:57:41.623Z,100341.06
2022-10-06T03:58:46.081Z,100331.91
2022-10-06T03:59:48.280Z,100339.34
2022-10-06T04:00:58.560Z,100339.41
2022-10-06T04:02:00.935Z,100342.66
2022-10-06T04:03:07.647Z,100346.94
2022-10-06T04:04:11.121Z,100345.06
2022-10-06T04:05:14.628Z,100351.56
2022-10-06T04:06:19.270Z,100345.22
2022-10-06T04:07:21.427Z,100351.50
2022-10-06T04:08:24.530Z,100354.03
2022-10-06T04:09:26.860Z,100357.69
2022-10-06T04:10:29.102Z,100350.56
2022-10-06T04:11:33.633Z,100359.38
2022-10-06T04:12:36.036Z,100355.66
2022-10-06T04:13:39.518Z,100363.97
2022-10-06T04:14:42.252Z,100359.38
2022-10-06T04:15:45.475Z,100357.81
2022-10-06T04:16:49.316Z,100359.53
2022-10-06T04:17:59.152Z,100354.78
2022-10-06T04:19:04.109Z,100354.72
2022-10-06T04:20:07.469Z,100361.97
2022-10-06T04:21:10.364Z,100358.06
2022-10-06T04:22:12.529Z,100361.84
2022-10-06T04:23:16.148Z,100359.38
2022-10-06T04:24:18.887Z,100366.56
2022-10-06T04:25:23.237Z,100362.84
2022-10-06T04:26:27.946Z,100363.41
2022-10-06T04:27:30.293Z,100362.53
2022-10-06T04:28:46.234Z,100367.97
2022-10-06T04:29:48.760Z,100374.00
2022-10-06T04:31:01.049Z,100369.72
2022-10-06T04:32:03.587Z,100372.75
2022-10-06T04:33:09.535Z,100378.19
2022-10-06T04:34:13.206Z,100379.84
2022-10-06T04:35:16.664Z,100383.47
2022-10-06T04:36:22.834Z,100378.78
2022-10-06T04:37:28.219Z,100379.31
2022-10-06T04:38:36.915Z,100375.59
2022-10-06T04:39:40.202Z,100385.16
2022-10-06T04:40:43.557Z,100387.81
2022-10-06T04:41:47.149Z,100391.97
2022-10-06T04:42:53.910Z,100388.56
2022-10-06T04:43:56.122Z,100392.16
2022-10-06T04:44:58.483Z,100391.81
2022-10-06T04:46:13.063Z,100391.81
2022-10-06T04:47:24.243Z,100394.16
2022-10-06T04:48:28.147Z,100395.28
2022-10-06T04:49:30.569Z,100395.22
2022-10-06T04:50:32.839Z,100402.75
2022-10-06T04:51:44.796Z,100393.28
2022-10-06T04:52:46.971Z,100399.47
2022-10-06T04:53:49.274Z,100403.94
2022-10-06T04:54:51.878Z,100402.31
2022-10-06T04:56:05.973Z,100402.31
2022-10-06T04:57:10.028Z,100399.78
2022-10-06T04:58:12.266Z,100396.94
2022-10-06T04:59:14.740Z,100400.44
2022-10-06T05:00:25.192Z,100404.13
2022-10-06T05:01:33.069Z,100412.00
2022-10-06T05:02:37.446Z,100407.19
2022-10-06T05:03:41.017Z,100414.38
2022-10-06T05:04:43.194Z,100417.16
2022-10-06T05:05:45.920Z,100405.94
2022-10-06T05:06:48.327Z,100412.22
2022-10-06T05:07:50.537Z,100402.41
2022-10-06T05:08:55.252Z,100417.00
2022-10-06T05:09:57.564Z,100408.06
2022-10-06T05:11:04.974Z,100410.44
2022-10-06T05:12:08.932Z,100405.00
2022-10-06T05:13:13.574Z,100409.97
2022-10-06T05:14:15.886Z,100413.75
2022-10-06T05:15:21.237Z,100415.28
2022-10-06T05:16:26.781Z,100416.66
2022-10-06T05:17:29.198Z,100419.31
2022-10-06T05:18:33.308Z,100427.19
2022-10-06T05:19:36.026Z,100422.75
2022-10-06T05:20:38.423Z,100428.72
2022-10-06T05:21:40.870Z,100430.53
2022-10-06T05:22:45.671Z,100437.31
2022-10-06T05:23:48.240Z,100441.66
2022-10-06T05:24:53.677Z,100441.81
2022-10-06T05:25:58.140Z,100448.69
2022-10-06T05:27:02.772Z,100433.66
2022-10-06T05:28:05.403Z,100439.94
2022-10-06T05:29:07.761Z,100441.81
2022-10-06T05:30:11.731Z,100447.50
2022-10-06T05:31:19.687Z,100447.78
2022-10-06T05:32:21.960Z,100451.19
2022-10-06T05:33:25.711Z,100455.19
2022-10-06T05:34:27.929Z,100448.31
2022-10-06T05:35:30.903Z,100455.22
2022-10-06T05:36:33.972Z,100454.63
2022-10-06T05:37:36.862Z,100451.03
2022-10-06T05:38:39.616Z,100460.44
2022-10-06T05:39:41.782Z,100460.22
2022-10-06T05:40:43.971Z,100465.81
2022-10-06T05:41:46.964Z,100464.66
2022-10-06T05:42:49.842Z,100463.84
2022-10-06T05:43:52.949Z,100464.59
2022-10-06T05:44:55.187Z,100468.56
2022-10-06T05:45:59.993Z,100468.44
2022-10-06T05:47:02.538Z,100471.84
2022-10-06T05:48:04.785Z,100472.81
2022-10-06T05:49:09.118Z,100482.97
2022-10-06T05:50:12.843Z,100474.13
2022-10-06T05:51:16.726Z,100476.84
2022-10-06T05:52:19.007Z,100480.03
2022-10-06T05:53:21.414Z,100476.44
2022-10-06T05:54:23.622Z,100481.81
2022-10-06T05:55:26.239Z,100481.97
2022-10-06T05:56:34.505Z,100483.25
2022-10-06T05:57:37.439Z,100485.69
2022-10-06T05:58:41.887Z,100485.09
2022-10-06T05:59:44.045Z,100494.41
2022-10-06T06:00:46.721Z,100487.41
2022-10-06T06:01:49.000Z,100491.81
2022-10-06T06:02:58.982Z,100496.22
2022-10-06T06:04:06.563Z,100494.56
2022-10-06T06:05:13.261Z,100498.84
2022-10-06T06:06:25.685Z,100502.91
2022-10-06T06:07:29.603Z,100496.53
2022-10-06T06:08:32.286Z,100503.72
2022-10-06T06:09:35.057Z,100496.47
2022-10-06T06:10:39.303Z,100501.50
2022-10-06T06:11:44.168Z,100503.31
2022-10-06T06:12:47.712Z,100501.88
2022-10-06T06:14:16.228Z,100499.19
2022-10-06T06:15:37.152Z,100500.78
2022-10-06T06:16:40.746Z,100504.41
2022-10-06T06:17:43.078Z,100506.78
2022-10-06T06:18:45.304Z,100514.31
2022-10-06T06:19:49.191Z,100503.97
2022-10-06T06:21:05.574Z,100510.56
2022-10-06T06:22:07.910Z,100509.13
2022-10-06T06:23:13.558Z,100512.03
2022-10-06T06:24:16.189Z,100516.59
2022-10-06T06:25:18.665Z,100515.59
2022-10-06T06:26:23.479Z,100513.34
2022-10-06T06:27:26.234Z,100523.00
2022-10-06T06:28:30.182Z,100518.19
2022-10-06T06:29:32.669Z,100517.25
2022-10-06T06:30:35.164Z,100531.38
2022-10-06T06:31:40.011Z,100519.72
2022-10-06T06:32:43.086Z,100527.59
2022-10-06T06:33:45.393Z,100527.06
2022-10-06T06:34:47.798Z,100536.31
2022-10-06T06:35:49.924Z,100538.31
2022-10-06T06:36:55.002Z,100544.00
2022-10-06T06:37:59.329Z,100546.97
2022-10-06T06:39:04.395Z,100560.59
2022-10-06T06:40:07.857Z,100542.50
2022-10-06T06:41:21.476Z,100553.72
2022-10-06T06:42:25.223Z,100563.78
2022-10-06T06:43:33.413Z,100560.09
2022-10-06T06:44:49.001Z,100564.56
2022-10-06T06:46:15.109Z,100568.91
2022-10-06T06:47:29.016Z,100565.25
2022-10-06T06:48:33.483Z,100574.44
2022-10-06T06:49:36.105Z,100584.56
2022-10-06T06:50:45.751Z,100580.09
2022-10-06T06:51:51.086Z,100578.63
2022-10-06T06:52:55.382Z,100587.97
2022-10-06T06:53:59.377Z,100584.38
2022-10-06T06:55:01.675Z,100593.00
2022-10-06T06:56:04.812Z,100587.69
2022-10-06T06:57:09.691Z,100589.56
2022-10-06T06:58:12.819Z,100596.47
2022-10-06T06:59:15.941Z,100594.66
2022-10-06T07:00:19.988Z,100594.81
2022-10-06T07:01:22.890Z,100605.97
2022-10-06T07:02:28.168Z,100598.66
2022-10-06T07:03:55.994Z,100597.06
2022-10-06T07:04:52.555Z,100598.78
2022-10-06T07:06:06.585Z,100601.63
2022-10-06T07:07:11.211Z,100595.69
2022-10-06T07:08:20.420Z,100595.59
2022-10-06T07:09:23.411Z,100603.19
2022-10-06T07:10:27.962Z,100597.59
2022-10-06T07:11:33.343Z,100604.94
2022-10-06T07:12:36.971Z,100605.94
2022-10-06T07:13:42.598Z,100613.94
2022-10-06T07:15:03.502Z,100611.88
2022-10-06T07:16:34.003Z,100613.13
2022-10-06T07:17:55.048Z,100623.72
2022-10-06T07:19:18.298Z,100624.22
2022-10-06T07:20:42.372Z,100617.31
2022-10-06T07:22:28.124Z,100616.06
2022-10-06T07:23:51.441Z,100625.53
2022-10-06T07:25:11.301Z,100622.50
2022-10-06T07:26:17.250Z,100628.66
2022-10-06T07:27:20.577Z,100620.03
2022-10-06T07:28:23.002Z,100621.75
2022-10-06T07:29:25.645Z,100632.06
2022-10-06T07:30:28.926Z,100639.91
2022-10-06T07:31:49.648Z,100625.41
2022-10-06T07:32:52.778Z,100635.00
2022-10-06T07:33:56.405Z,100637.38
2022-10-06T07:34:59.395Z,100636.91
2022-10-06T07:36:02.813Z,100639.06
2022-10-06T07:37:06.519Z,100643.13
2022-10-06T07:38:09.641Z,100648.22
2022-10-06T07:39:16.095Z,100647.47
2022-10-06T07:40:18.624Z,100649.59
2022-10-06T07:41:21.400Z,100653.53
2022-10-06T07:42:27.879Z,100656.03
2022-10-06T07:43:30.194Z,100658.91
2022-10-06T07:44:32.824Z,100652.50
2022-10-06T07:45:39.449Z,100655.41
2022-10-06T07:46:45.569Z,100659.97
2022-10-06T07:47:58.497Z,100652.81
2022-10-06T07:49:00.939Z,100654.91
2022-10-06T07:50:03.383Z,100659.97
2022-10-06T07:51:13.942Z,100655.75
2022-10-06T07:52:16.856Z,100663.00
2022-10-06T07:53:19.689Z,100672.03
2022-10-06T07:54:27.539Z,100668.69
2022-10-06T07:55:54.594Z,100675.75
2022-10-06T07:56:59.448Z,100676.41
2022-10-06T07:58:01.967Z,100679.56
2022-10-06T07:59:04.182Z,100678.22
2022-10-06T08:00:07.213Z,100683.47
2022-10-06T08:01:16.461Z,100682.63
2022-10-06T08:02:19.814Z,100687.00
2022-10-06T08:03:22.357Z,100680.38
2022-10-06T08:04:24.667Z,100680.94
2022-10-06T08:05:26.891Z,100685.72
2022-10-06T08:06:29.048Z,100680.50
2022-10-06T08:07:31.258Z,100682.75
2022-10-06T08:08:37.856Z,100689.00
2022-10-06T08:09:40.035Z,100684.66
2022-10-06T08:10:43.365Z,100689.28
2022-10-06T08:11:47.249Z,100688.59
2022-10-06T08:12:49.545Z,100690.16
2022-10-06T08:13:51.943Z,100700.34
2022-10-06T08:14:54.498Z,100692.31
2022-10-06T08:16:04.696Z,100692.00
2022-10-06T08:17:06.943Z,100701.09
2022-10-06T08:18:27.142Z,100698.50
2022-10-06T08:19:31.272Z,100685.94
2022-10-06T08:20:33.458Z,100696.34
2022-10-06T08:21:35.691Z,100698.97
2022-10-06T08:22:39.908Z,100707.63
2022-10-06T08:23:43.289Z,100704.19
2022-10-06T08:25:04.814Z,100701.75
2022-10-06T08:26:09.264Z,100706.22
2022-10-06T08:27:11.448Z,100707.66
2022-10-06T08:28:13.950Z,100710.97
2022-10-06T08:29:16.202Z,100707.81
2022-10-06T08:30:18.478Z,100706.09
2022-10-06T08:31:22.784Z,100712.19
2022-10-06T08:32:25.397Z,100713.53
2022-10-06T08:33:27.604Z,100718.16
2022-10-06T08:34:29.936Z,100714.19
2022-10-06T08:35:32.874Z,100713.91
2022-10-06T08:36:35.122Z,100716.44
2022-10-06T08:37:37.398Z,100723.03
2022-10-06T08:38:40.484Z,100713.06
2022-10-06T08:39:42.865Z,100718.16
2022-10-06T08:40:46.903Z,100720.88
2022-10-06T08:41:54.642Z,100726.47
2022-10-06T08:43:00.888Z,100719.34
2022-10-06T08:44:08.409Z,100726.78
2022-10-06T08:45:40.550Z,100724.06
2022-10-06T08:46:53.181Z,100720.56
2022-10-06T08:48:04.131Z,100727.13
2022-10-06T08:49:11.466Z,100728.84
2022-10-06T08:50:13.811Z,100721.56
2022-10-06T08:51:31.115Z,100722.22
2022-10-06T08:52:46.778Z,100730.97
2022-10-06T08:54:10.691Z,100730.22
2022-10-06T08:55:37.261Z,100734.28
2022-10-06T08:56:58.949Z,100737.16
2022-10-06T08:58:17.004Z,100730.56
2022-10-06T08:59:19.313Z,100736.28
2022-10-06T09:00:22.392Z,100738.41
2022-10-06T09:01:43.275Z,100738.88
2022-10-06T09:02:48.878Z,100739.34
2022-10-06T09:03:53.857Z,100741.19
2022-10-06T09:04:58.412Z,100741.19
2022-10-06T09:06:18.134Z,100745.56
2022-10-06T09:07:34.471Z,100748.75
2022-10-06T09:08:55.349Z,100745.88
2022-10-06T09:10:16.236Z,100758.56
2022-10-06T09:12:02.248Z,100754.91
2022-10-06T09:13:13.176Z,100745.91
2022-10-06T09:14:21.476Z,100755.66
2022-10-06T09:15:46.686Z,100765.28
2022-10-06T09:16:54.081Z,100759.44
2022-10-06T09:18:07.273Z,100747.56
2022-10-06T09:19:31.317Z,100752.47
2022-10-06T09:20:57.397Z,100759.91
2022-10-06T09:22:00.660Z,100761.47
2022-10-06T09:23:12.491Z,100751.09
2022-10-06T09:24:25.727Z,100765.59
2022-10-06T09:25:29.758Z,100762.38
2022-10-06T09:26:33.139Z,100765.66
2022-10-06T09:27:37.696Z,100769.50
2022-10-06T09:28:40.163Z,100768.75
2022-10-06T09:29:42.443Z,100772.31
2022-10-06T09:30:44.689Z,100777.50
2022-10-06T09:31:52.997Z,100771.22
2022-10-06T09:33:00.099Z,100768.97
2022-10-06T09:34:08.867Z,100781.34
2022-10-06T09:35:19.491Z,100774.97
2022-10-06T09:36:22.166Z,100770.28
2022-10-06T09:37:24.354Z,100770.66
2022-10-06T09:38:47.575Z,100768.22
2022-10-06T09:39:51.737Z,100781.72
2022-10-06T09:40:54.495Z,100775.75
2022-10-06T09:41:56.736Z,100779.03
2022-10-06T09:42:58.948Z,100768.53
2022-10-06T09:44:07.073Z,100780.13
2022-10-06T09:45:31.245Z,100775.81
2022-10-06T09:46:41.721Z,100780.47
2022-10-06T09:47:45.442Z,100781.56
2022-10-06T09:48:47.929Z,100785.38
2022-10-06T09:50:13.169Z,100788.59
2022-10-06T09:51:17.861Z,100778.41
2022-10-06T09:52:20.094Z,100772.31
2022-10-06T09:53:22.310Z,100769.44
2022-10-06T09:54:24.639Z,100781.16
2022-10-06T09:55:51.283Z,100770.81
2022-10-06T09:56:53.961Z,100779.38
2022-10-06T09:57:57.491Z,100775.81
2022-10-06T09:59:01.661Z,100785.44
2022-10-06T10:00:26.302Z,100777.88
2022-10-06T10:01:30.700Z,100782.00
2022-10-06T10:02:39.481Z,100783.59
2022-10-06T10:04:18.620Z,100772.75
2022-10-06T10:05:22.304Z,100775.03
2022-10-06T10:06:30.593Z,100779.25
2022-10-06T10:07:34.967Z,100769.84
2022-10-06T10:08:37.508Z,100772.75
2022-10-06T10:09:41.779Z,100771.31
2022-10-06T10:10:44.141Z,100774.38
2022-10-06T10:12:10.019Z,100771.03
2022-10-06T10:13:24.122Z,100769.59
2022-10-06T10:14:26.329Z,100762.81
2022-10-06T10:15:33.773Z,100770.25
2022-10-06T10:16:36.166Z,100771.94
2022-10-06T10:17:47.427Z,100777.34
2022-10-06T10:18:51.321Z,100767.56
2022-10-06T10:19:54.831Z,100771.69
2022-10-06T10:21:08.296Z,100771.91
2022-10-06T10:22:23.764Z,100772.63
2022-10-06T10:23:33.548Z,100776.59
2022-10-06T10:24:50.972Z,100775.59
2022-10-06T10:25:58.816Z,100783.94
2022-10-06T10:27:14.772Z,100766.31
2022-10-06T10:28:50.710Z,100777.88
2022-10-06T10:30:14.659Z,100776.28
2022-10-06T10:31:37.733Z,100773.22
2022-10-06T10:33:07.890Z,100775.66
2022-10-06T10:34:31.652Z,100777.13
2022-10-06T10:35:47.040Z,100768.44
2022-10-06T10:36:55.636Z,100775.31
2022-10-06T10:38:03.951Z,100763.91
2022-10-06T10:39:13.981Z,100768.19
2022-10-06T10:40:51.851Z,100776.28
2022-10-06T10:41:57.136Z,100769.50
2022-10-06T10:43:04.611Z,100784.16
2022-10-06T10:44:10.527Z,100773.44
2022-10-06T10:45:27.066Z,100773.94
2022-10-06T10:46:46.183Z,100773.25
2022-10-06T10:47:49.270Z,100774.97
2022-10-06T10:49:01.303Z,100784.09
2022-10-06T10:50:34.142Z,100772.91
2022-10-06T10:51:45.493Z,100780.09
2022-10-06T10:52:51.527Z,100778.31
2022-10-06T10:54:15.705Z,100774.75
2022-10-06T10:55:26.735Z,100779.94
2022-10-06T10:56:32.757Z,100778.31
2022-10-06T10:57:40.264Z,100780.75
2022-10-06T10:58:44.737Z,100775.06
2022-10-06T11:00:03.876Z,100784.00
2022-10-06T11:01:17.817Z,100775.94
2022-10-06T11:02:22.141Z,100773.50
2022-10-06T11:03:24.357Z,100778.22
2022-10-06T11:04:26.910Z,100782.63
2022-10-06T11:05:43.688Z,100775.09
2022-10-06T11:07:00.146Z,100774.03
2022-10-06T11:08:10.980Z,100769.75
2022-10-06T11:09:19.320Z,100763.19
2022-10-06T11:10:32.581Z,100769.78
2022-10-06T11:12:03.557Z,100765.47
2022-10-06T11:13:28.631Z,100768.16
2022-10-06T11:14:50.939Z,100766.81
2022-10-06T11:16:08.422Z,100768.44
2022-10-06T11:17:26.336Z,100767.59
2022-10-06T11:19:09.165Z,100764.59
2022-10-06T11:20:33.323Z,100765.38
2022-10-06T11:21:50.601Z,100771.13
2022-10-06T11:23:03.343Z,100766.28
2022-10-06T11:24:14.630Z,100765.91
2022-10-06T11:25:30.074Z,100766.75
2022-10-06T11:27:02.383Z,100771.53
2022-10-06T11:28:14.317Z,100773.78
2022-10-06T11:29:31.642Z,100778.94
2022-10-06T11:30:40.811Z,100780.50
2022-10-06T11:32:04.623Z,100775.22
2022-10-06T11:33:46.489Z,100781.38
2022-10-06T11:34:49.943Z,100787.75
2022-10-06T11:35:52.387Z,100779.34
2022-10-06T11:37:23.693Z,100768.09
2022-10-06T11:38:44.927Z,100774.72
2022-10-06T11:39:54.308Z,100778.84
2022-10-06T11:41:17.304Z,100769.72
2022-10-06T11:42:25.778Z,100779.78
2022-10-06T11:44:05.418Z,100774.97
2022-10-06T11:45:13.961Z,100757.50
2022-10-06T11:46:37.479Z,100759.19
2022-10-06T11:48:02.052Z,100766.63
2022-10-06T11:49:30.139Z,100752.88
2022-10-06T11:50:38.453Z,100751.88
2022-10-06T11:51:40.704Z,100757.84
2022-10-06T11:52:47.058Z,100753.41
2022-10-06T11:53:49.379Z,100763.13
2022-10-06T11:54:57.095Z,100750.63
2022-10-06T11:56:17.561Z,100758.97
2022-10-06T11:57:25.065Z,100748.78
2022-10-06T11:58:54.534Z,100744.28
2022-10-06T12:00:16.740Z,100755.28
2022-10-06T12:01:44.974Z,100755.81
2022-10-06T12:02:47.467Z,100757.09
2022-10-06T12:04:08.540Z,100767.44
2022-10-06T12:05:36.903Z,100761.72
2022-10-06T12:06:41.689Z,100745.50
2022-10-06T12:07:52.591Z,100753.53
2022-10-06T12:08:54.814Z,100747.97
2022-10-06T12:10:28.997Z,100750.56
2022-10-06T12:11:42.644Z,100753.31
2022-10-06T12:14:01.666Z,100752.81
2022-10-06T12:18:14.338Z,100741.06
2022-10-06T12:19:19.902Z,100743.34
2022-10-06T12:20:50.185Z,100741.91
2022-10-06T12:22:16.719Z,100746.88
2022-10-06T12:23:46.439Z,100741.03
2022-10-06T12:25:06.181Z,100735.00
2022-10-06T12:26:49.176Z,100740.34
2022-10-06T12:28:16.348Z,100737.31
2022-10-06T12:29:27.348Z,100725.38
2022-10-06T12:31:01.438Z,100730.78
2022-10-06T12:32:39.739Z,100734.09
2022-10-06T12:33:43.140Z,100737.25
2022-10-06T12:35:03.698Z,100736.91
2022-10-06T12:36:23.056Z,100743.22
2022-10-06T12:37:53.096Z,100732.78
2022-10-06T12:39:10.863Z,100732.44
2022-10-06T12:40:40.513Z,100739.03
2022-10-06T12:41:54.558Z,100718.03
2022-10-06T12:43:18.926Z,100737.75
2022-10-06T12:44:25.808Z,100736.19
2022-10-06T12:45:28.327Z,100731.22
2022-10-06T12:46:40.267Z,100735.03
2022-10-06T12:47:44.218Z,100731.22
2022-10-06T12:48:50.125Z,100724.88
2022-10-06T12:49:53.882Z,100724.56
2022-10-06T12:51:27.989Z,100723.03
2022-10-06T12:52:51.423Z,100722.44
2022-10-06T12:54:05.942Z,100728.56
2022-10-06T12:55:37.480Z,100725.44